Time;durP1;ratioP1;P1;durP2;ratioP2;P2;SDS_P1;SDS_P2;PMS_P1;PMS_P2;Temp;Humidity;BMP_temperature;BMP_pressure;BME280_temperature;BME280_humidity;BME280_pressure;Samples;Min_cycle;Max_cycle;Signal;HPM_P1;HPM_P2
2022/03/21 00:00:33;;;;;;;56.25;28.80;;;6.00;99.90;;;;;;5015579;28;20129;-84
2022/03/21 00:02:59;;;;;;;51.17;29.27;;;6.00;99.90;;;;;;5015638;28;20041;-85
2022/03/21 00:05:25;;;;;;;51.05;28.52;;;6.10;99.90;;;;;;5015051;28;20046;-84
2022/03/21 00:07:51;;;;;;;48.85;27.58;;;6.10;99.90;;;;;;5015002;28;20168;-85
2022/03/21 00:10:16;;;;;;;48.40;28.58;;;6.10;99.90;;;;;;5015364;28;20098;-85
2022/03/21 00:12:42;;;;;;;47.22;25.65;;;6.10;99.90;;;;;;5015468;28;20100;-85
2022/03/21 00:15:11;;;;;;;45.47;24.02;;;6.10;99.90;;;;;;5015327;28;20088;-85
2022/03/21 00:17:40;;;;;;;44.08;25.65;;;6.30;99.90;;;;;;5014981;28;20045;-84
2022/03/21 00:20:10;;;;;;;47.15;24.58;;;6.30;99.90;;;;;;5015013;28;20125;-84
2022/03/21 00:22:37;;;;;;;36.72;20.55;;;6.30;99.90;;;;;;5014830;28;20042;-85
2022/03/21 00:25:03;;;;;;;40.80;24.60;;;6.40;99.90;;;;;;5015262;28;20038;-85
2022/03/21 00:27:29;;;;;;;37.55;21.70;;;6.40;99.90;;;;;;5014790;28;20046;-84
2022/03/21 00:29:54;;;;;;;37.50;22.23;;;6.40;99.90;;;;;;5014885;28;20050;-85
2022/03/21 00:32:20;;;;;;;42.97;23.42;;;6.40;99.90;;;;;;5014734;28;20057;-85
2022/03/21 00:34:46;;;;;;;41.45;23.02;;;6.40;99.90;;;;;;5016109;28;20049;-85
2022/03/21 00:37:12;;;;;;;41.20;18.33;;;6.40;99.90;;;;;;5017909;28;20069;-85
2022/03/21 00:39:41;;;;;;;36.22;21.52;;;6.40;99.90;;;;;;5016092;28;20117;-84
2022/03/21 00:42:10;;;;;;;36.70;22.27;;;6.50;99.90;;;;;;5016348;28;20388;-84
2022/03/21 00:44:38;;;;;;;38.25;21.52;;;6.40;99.90;;;;;;5016777;28;20053;-85
2022/03/21 00:47:04;;;;;;;41.60;21.20;;;6.40;99.90;;;;;;5015577;28;20056;-84
2022/03/21 00:49:30;;;;;;;32.55;19.42;;;6.40;99.90;;;;;;5015255;28;20433;-84
2022/03/21 00:51:55;;;;;;;33.97;17.13;;;6.40;99.90;;;;;;5014100;28;20082;-84
2022/03/21 00:54:21;;;;;;;42.42;20.70;;;6.40;99.90;;;;;;5014037;28;20046;-85
2022/03/21 00:56:46;;;;;;;33.08;19.23;;;6.40;99.90;;;;;;5014178;28;20049;-84
2022/03/21 00:59:12;;;;;;;34.35;16.95;;;6.30;99.90;;;;;;5014300;28;20073;-85
2022/03/21 01:01:38;;;;;;;40.22;18.42;;;6.30;99.90;;;;;;5013791;28;20096;-84
2022/03/21 01:04:03;;;;;;;34.22;19.10;;;6.40;99.90;;;;;;5014158;28;20484;-85
2022/03/21 01:06:29;;;;;;;34.55;18.98;;;6.30;99.90;;;;;;5014911;28;20377;-85
2022/03/21 01:08:55;;;;;;;34.60;19.25;;;6.30;99.90;;;;;;5013123;28;20042;-85
2022/03/21 01:11:22;;;;;;;37.33;18.55;;;6.30;99.90;;;;;;5013452;28;20050;-85
2022/03/21 01:13:48;;;;;;;31.10;18.13;;;6.30;99.90;;;;;;5013383;28;20147;-84
2022/03/21 01:16:15;;;;;;;34.63;17.83;;;6.20;99.90;;;;;;5013118;28;20042;-84
2022/03/21 01:18:41;;;;;;;31.52;17.08;;;6.30;99.90;;;;;;5012177;28;20046;-84
2022/03/21 01:21:07;;;;;;;29.05;17.27;;;6.30;99.90;;;;;;5012878;28;20052;-84
2022/03/21 01:23:33;;;;;;;28.65;15.88;;;6.20;99.90;;;;;;5013803;28;20047;-84
2022/03/21 01:25:58;;;;;;;28.88;17.02;;;6.20;99.90;;;;;;5013475;28;20072;-84
2022/03/21 01:28:24;;;;;;;33.88;17.98;;;6.30;99.90;;;;;;5013277;28;20042;-85
2022/03/21 01:30:49;;;;;;;28.88;17.50;;;6.30;99.90;;;;;;5013751;28;20042;-84
2022/03/21 01:33:15;;;;;;;28.70;16.42;;;6.60;99.90;;;;;;5013048;28;20046;-85
2022/03/21 01:35:40;;;;;;;26.23;14.57;;;6.20;99.90;;;;;;5013147;28;20037;-85
2022/03/21 01:38:06;;;;;;;26.45;14.18;;;6.20;99.90;;;;;;5013003;28;20041;-85
2022/03/21 01:40:31;;;;;;;29.23;15.48;;;6.20;99.90;;;;;;5013146;28;20046;-84
2022/03/21 01:42:57;;;;;;;37.47;16.65;;;6.10;99.90;;;;;;5013191;28;20046;-84
2022/03/21 01:45:27;;;;;;;27.52;14.73;;;6.10;99.90;;;;;;5013576;28;20050;-84
2022/03/21 01:47:53;;;;;;;27.23;15.25;;;6.00;99.90;;;;;;5013267;28;20045;-84
2022/03/21 01:50:18;;;;;;;34.20;16.58;;;5.90;99.90;;;;;;5013464;28;20053;-84
2022/03/21 01:52:44;;;;;;;33.10;15.88;;;5.80;99.90;;;;;;5013453;28;20181;-84
2022/03/21 01:57:55;;;;;;;28.90;15.10;;;5.50;99.90;;;;;;5038609;28;20053;-83
2022/03/21 02:00:22;;;;;;;39.67;17.38;;;5.40;99.90;;;;;;5040884;28;20030;-83
2022/03/21 02:02:47;;;;;;;26.15;15.13;;;5.30;99.90;;;;;;5024758;28;20088;-84
2022/03/21 02:05:13;;;;;;;28.70;15.07;;;5.30;99.90;;;;;;5019184;28;20069;-84
2022/03/21 02:07:39;;;;;;;30.70;15.85;;;5.40;99.90;;;;;;5016557;28;20471;-84
2022/03/21 02:10:06;;;;;;;27.90;14.82;;;5.30;99.90;;;;;;5017286;28;20125;-84
2022/03/21 02:12:33;;;;;;;30.08;16.25;;;5.30;99.90;;;;;;5017297;28;20037;-84
2022/03/21 02:14:59;;;;;;;28.00;15.18;;;5.20;99.90;;;;;;5017387;28;20045;-84
2022/03/21 02:17:27;;;;;;;33.25;15.50;;;5.10;99.90;;;;;;5016666;28;20488;-84
2022/03/21 02:19:54;;;;;;;28.13;15.05;;;5.00;99.90;;;;;;4999422;28;20164;-84
2022/03/21 02:22:33;;;;;;;31.23;15.65;;;4.90;99.90;;;;;;5016674;28;20045;-85
2022/03/21 02:25:34;;;;;;;29.05;15.07;;;4.80;99.90;;;;;;5016670;28;20049;-84
2022/03/21 02:28:03;;;;;;;33.92;16.40;;;4.60;99.90;;;;;;5016450;28;20046;-84
2022/03/21 02:30:31;;;;;;;31.15;16.20;;;4.50;99.90;;;;;;5015107;28;20061;-84
2022/03/21 02:32:59;;;;;;;33.00;17.15;;;4.40;99.90;;;;;;5016472;28;20038;-84
2022/03/21 02:35:24;;;;;;;33.67;16.52;;;4.30;99.90;;;;;;5015999;28;20096;-84
2022/03/21 02:37:52;;;;;;;42.33;18.45;;;4.30;99.90;;;;;;5016148;28;20046;-84
2022/03/21 02:40:17;;;;;;;29.33;15.45;;;4.10;99.90;;;;;;5016115;28;20153;-84
2022/03/21 02:42:43;;;;;;;33.28;19.00;;;4.10;99.90;;;;;;5052139;22;20050;-77
2022/03/21 02:45:09;;;;;;;35.00;18.67;;;4.00;99.90;;;;;;5027718;28;20049;-77
2022/03/21 02:47:35;;;;;;;36.67;19.85;;;3.90;99.90;;;;;;5031987;28;20034;-77
2022/03/21 02:50:02;;;;;;;39.33;19.83;;;3.90;99.90;;;;;;5034085;28;20359;-77
2022/03/21 02:52:29;;;;;;;41.42;19.30;;;3.70;99.90;;;;;;5035896;28;20045;-77
2022/03/21 02:54:55;;;;;;;41.85;20.58;;;3.70;99.90;;;;;;5034999;28;20045;-77
2022/03/21 02:57:21;;;;;;;43.80;20.35;;;3.80;99.90;;;;;;5018433;28;20099;-77
2022/03/21 02:59:46;;;;;;;37.90;20.73;;;3.80;99.90;;;;;;5033576;28;20529;-77
2022/03/21 03:02:12;;;;;;;46.08;22.38;;;3.70;99.90;;;;;;5016061;28;20594;-77
2022/03/21 03:04:37;;;;;;;39.28;20.40;;;3.70;99.90;;;;;;5016120;28;20044;-77
2022/03/21 03:07:03;;;;;;;48.22;23.48;;;3.70;99.90;;;;;;5014737;28;20049;-77
2022/03/21 03:09:29;;;;;;;56.67;26.50;;;3.80;99.90;;;;;;5014274;28;20054;-77
2022/03/21 03:11:55;;;;;;;39.50;22.45;;;3.90;99.90;;;;;;5015894;28;20575;-77
2022/03/21 03:14:21;;;;;;;42.72;22.98;;;3.80;99.90;;;;;;5014883;28;20049;-77
2022/03/21 03:16:47;;;;;;;47.13;22.38;;;3.70;99.90;;;;;;5016509;28;20408;-77
2022/03/21 03:19:12;;;;;;;47.28;21.92;;;4.00;99.90;;;;;;5035378;28;20041;-76
2022/03/21 03:21:46;;;;;;;47.95;22.48;;;3.40;99.90;;;;;;5035059;28;20048;-77
2022/03/21 03:24:12;;;;;;;71.60;25.58;;;3.30;99.90;;;;;;5034979;28;20099;-77
2022/03/21 03:26:38;;;;;;;41.72;21.83;;;3.20;99.90;;;;;;5035425;28;20492;-77
2022/03/21 03:29:04;;;;;;;46.50;22.60;;;3.10;99.90;;;;;;5035494;28;20055;-77
2022/03/21 03:31:30;;;;;;;47.40;23.75;;;2.90;99.90;;;;;;5035241;28;20045;-78
2022/03/21 03:33:57;;;;;;;48.65;22.08;;;2.70;99.90;;;;;;5034159;28;20046;-77
2022/03/21 03:36:23;;;;;;;44.75;22.85;;;2.70;99.90;;;;;;5035043;28;20049;-77
2022/03/21 03:38:51;;;;;;;50.47;23.33;;;2.60;99.90;;;;;;5034043;28;20053;-77
2022/03/21 03:41:17;;;;;;;60.67;25.17;;;2.50;99.90;;;;;;5035133;28;20140;-77
2022/03/21 03:43:43;;;;;;;56.03;25.13;;;2.70;99.90;;;;;;5034770;28;20061;-77
2022/03/21 03:46:09;;;;;;;53.50;22.63;;;2.60;99.90;;;;;;5034882;28;20053;-77
2022/03/21 03:48:35;;;;;;;56.42;23.55;;;2.60;99.90;;;;;;5034763;28;20046;-77
2022/03/21 03:51:03;;;;;;;50.70;23.50;;;2.50;99.90;;;;;;5032488;28;20128;-77
2022/03/21 03:53:29;;;;;;;55.60;24.85;;;2.40;99.90;;;;;;5015192;28;20125;-76
2022/03/21 03:55:54;;;;;;;59.80;26.08;;;2.30;99.90;;;;;;5016277;28;20113;-77
2022/03/21 03:58:20;;;;;;;56.40;25.13;;;2.20;99.90;;;;;;5033330;28;20045;-76
2022/03/21 04:00:46;;;;;;;53.15;22.95;;;2.10;99.90;;;;;;5035066;28;20041;-77
2022/03/21 04:05:57;;;;;;;63.47;25.00;;;1.90;99.90;;;;;;5034161;28;20085;-77
2022/03/21 04:08:22;;;;;;;59.38;24.85;;;2.40;99.90;;;;;;5034042;28;20186;-77
2022/03/21 04:10:48;;;;;;;66.05;24.30;;;1.70;99.90;;;;;;5034364;28;20124;-77
2022/03/21 04:13:13;;;;;;;61.50;25.27;;;1.60;99.90;;;;;;5033257;28;20491;-77
2022/03/21 04:15:39;;;;;;;72.68;26.10;;;1.50;99.90;;;;;;5034372;28;20076;-77
2022/03/21 04:18:05;;;;;;;59.15;26.00;;;1.50;99.90;;;;;;5033094;28;20052;-77
2022/03/21 04:20:31;;;;;;;62.35;24.70;;;1.30;99.90;;;;;;5033762;28;20053;-77
2022/03/21 04:22:58;;;;;;;64.00;25.77;;;1.30;99.90;;;;;;5032736;28;20480;-77
2022/03/21 04:25:24;;;;;;;64.13;26.40;;;1.30;99.90;;;;;;5034393;28;20102;-77
2022/03/21 04:27:50;;;;;;;69.47;25.35;;;1.20;99.90;;;;;;5016347;28;20499;-77
2022/03/21 04:30:16;;;;;;;70.88;27.17;;;1.20;99.90;;;;;;5034153;28;20045;-77
2022/03/21 04:32:43;;;;;;;67.60;25.90;;;1.10;99.90;;;;;;5032993;28;20042;-77
2022/03/21 04:35:10;;;;;;;71.78;26.88;;;1.10;99.90;;;;;;5034151;28;20495;-76
2022/03/21 04:37:35;;;;;;;75.00;27.27;;;1.00;99.90;;;;;;5033940;28;20064;-76
2022/03/21 04:40:01;;;;;;;72.53;27.80;;;1.10;99.90;;;;;;5034006;28;20049;-77
2022/03/21 04:42:27;;;;;;;82.05;29.10;;;0.80;99.90;;;;;;5016448;28;20052;-76
2022/03/21 04:44:53;;;;;;;64.07;24.88;;;0.70;99.90;;;;;;5033495;28;20049;-77
2022/03/21 04:47:21;;;;;;;84.38;27.17;;;0.70;99.90;;;;;;5033228;28;20041;-76
2022/03/21 04:49:47;;;;;;;71.50;27.50;;;0.60;99.90;;;;;;5033885;28;20407;-76
2022/03/21 04:52:12;;;;;;;72.20;27.42;;;0.60;99.90;;;;;;5032077;28;20046;-77
2022/03/21 04:54:39;;;;;;;83.32;29.27;;;0.50;99.90;;;;;;5033653;28;20049;-78
2022/03/21 04:57:06;;;;;;;74.28;28.95;;;0.50;99.90;;;;;;5032191;28;20045;-79
2022/03/21 04:59:33;;;;;;;80.72;30.95;;;0.50;99.90;;;;;;5033407;28;20121;-78
2022/03/21 05:01:59;;;;;;;87.75;28.95;;;0.50;99.90;;;;;;5033615;28;20045;-78
2022/03/21 05:04:26;;;;;;;87.13;29.40;;;0.50;99.90;;;;;;5033640;28;20064;-78
2022/03/21 05:06:53;;;;;;;85.30;30.42;;;0.60;99.90;;;;;;5033485;28;20037;-78
2022/03/21 05:09:19;;;;;;;87.20;28.77;;;0.60;99.90;;;;;;5033651;28;20395;-79
2022/03/21 05:11:45;;;;;;;90.05;33.55;;;0.60;99.90;;;;;;5033465;28;20042;-78
2022/03/21 05:14:10;;;;;;;104.03;33.72;;;0.60;99.90;;;;;;5033296;28;20037;-78
2022/03/21 05:16:36;;;;;;;99.18;32.22;;;0.60;99.90;;;;;;5033626;28;20045;-78
2022/03/21 05:19:02;;;;;;;97.75;29.75;;;0.60;99.90;;;;;;5033723;28;20041;-78
2022/03/21 05:21:28;;;;;;;90.25;30.33;;;0.70;99.90;;;;;;5033552;28;20057;-78
2022/03/21 05:32:07;;;;;;;103.68;32.83;;;0.80;99.90;;;;;;5035642;28;20049;-78
2022/03/21 05:37:17;;;;;;;96.65;32.25;;;0.80;99.90;;;;;;5037259;28;20085;-78
2022/03/21 05:42:27;;;;;;;100.85;31.73;;;0.70;99.90;;;;;;5037171;28;20061;-78
2022/03/21 05:44:53;;;;;;;100.63;31.38;;;0.80;99.90;;;;;;5036870;28;20046;-78
2022/03/21 05:47:19;;;;;;;100.40;33.55;;;0.90;99.90;;;;;;5037110;28;20038;-78
2022/03/21 05:49:45;;;;;;;104.10;30.75;;;0.90;99.90;;;;;;5035022;28;20045;-78
2022/03/21 05:52:10;;;;;;;101.75;34.45;;;1.00;99.90;;;;;;5028846;28;20034;-78
2022/03/21 05:54:36;;;;;;;99.38;34.33;;;1.00;99.90;;;;;;5017888;28;20096;-78
2022/03/21 05:57:02;;;;;;;104.50;33.03;;;1.10;99.90;;;;;;5014293;28;20042;-79
2022/03/21 06:02:12;;;;;;;113.68;34.95;;;1.10;99.90;;;;;;5014429;28;20072;-78
2022/03/21 06:04:38;;;;;;;103.80;32.28;;;1.30;99.90;;;;;;5014108;28;20038;-78
2022/03/21 06:07:04;;;;;;;108.60;32.80;;;1.30;99.90;;;;;;5019570;28;20037;-79
2022/03/21 06:09:29;;;;;;;113.60;36.35;;;1.40;99.90;;;;;;5022386;28;20096;-79
2022/03/21 06:11:55;;;;;;;110.70;33.40;;;1.70;99.90;;;;;;5029924;28;20126;-78
2022/03/21 06:14:21;;;;;;;120.35;35.42;;;1.50;99.90;;;;;;5036468;28;20435;-79
2022/03/21 06:16:48;;;;;;;112.32;36.65;;;1.60;99.90;;;;;;5036141;28;20040;-78
2022/03/21 06:19:14;;;;;;;106.07;34.17;;;1.60;99.90;;;;;;5036361;28;20053;-78
2022/03/21 06:21:39;;;;;;;104.47;35.25;;;1.60;99.90;;;;;;5036785;28;20128;-78
2022/03/21 06:24:05;;;;;;;118.13;38.83;;;1.70;99.90;;;;;;5036591;28;20145;-78
2022/03/21 06:26:31;;;;;;;120.53;37.13;;;1.80;99.90;;;;;;5018539;28;20112;-78
2022/03/21 06:28:56;;;;;;;103.38;34.75;;;1.80;99.90;;;;;;5036407;28;20126;-78
2022/03/21 06:31:22;;;;;;;112.68;35.53;;;1.80;99.90;;;;;;5036420;28;20037;-78
2022/03/21 06:33:48;;;;;;;112.45;36.97;;;1.90;99.90;;;;;;5036945;28;20410;-78
2022/03/21 06:36:14;;;;;;;128.43;39.15;;;2.20;99.90;;;;;;5036396;28;20042;-78
2022/03/21 06:38:40;;;;;;;119.50;39.88;;;2.20;99.90;;;;;;5036400;28;20415;-78
2022/03/21 06:41:06;;;;;;;130.60;42.50;;;2.40;99.90;;;;;;5036343;28;20048;-78
2022/03/21 06:43:32;;;;;;;115.40;40.78;;;2.50;99.90;;;;;;5036104;28;20050;-78
2022/03/21 06:45:58;;;;;;;122.97;41.97;;;2.50;99.90;;;;;;5037170;28;20080;-78
2022/03/21 06:48:25;;;;;;;117.03;39.90;;;2.60;99.90;;;;;;5037179;28;20053;-76
2022/03/21 06:50:53;;;;;;;114.85;43.38;;;2.70;99.90;;;;;;5037075;28;20361;-76
2022/03/21 06:53:19;;;;;;;117.40;40.95;;;2.80;99.90;;;;;;5037184;28;20436;-75
2022/03/21 06:55:45;;;;;;;114.57;40.72;;;2.70;99.90;;;;;;5035767;28;20076;-76
2022/03/21 06:58:13;;;;;;;114.55;40.90;;;2.80;99.90;;;;;;5036075;28;20139;-76
2022/03/21 07:00:40;;;;;;;99.38;37.42;;;3.00;99.90;;;;;;5033934;28;20064;-76
2022/03/21 07:03:06;;;;;;;105.13;41.08;;;3.10;99.90;;;;;;5035231;28;20052;-77
2022/03/21 07:05:32;;;;;;;104.63;38.78;;;3.30;99.90;;;;;;5033971;28;20141;-77
2022/03/21 07:07:57;;;;;;;100.90;39.63;;;3.50;99.90;;;;;;5034098;28;20120;-77
2022/03/21 07:10:23;;;;;;;114.10;42.10;;;3.60;99.90;;;;;;5033842;28;20041;-77
2022/03/21 07:12:49;;;;;;;96.05;39.10;;;3.60;99.90;;;;;;5035251;28;20496;-77
2022/03/21 07:15:15;;;;;;;90.00;38.53;;;3.90;99.90;;;;;;5034709;28;20038;-77
2022/03/21 07:17:42;;;;;;;88.70;36.80;;;4.20;99.90;;;;;;5034617;28;20480;-77
2022/03/21 07:20:09;;;;;;;83.85;35.80;;;4.40;99.90;;;;;;5034873;28;20045;-77
2022/03/21 07:22:35;;;;;;;89.10;35.22;;;4.30;99.90;;;;;;5032039;28;20061;-77
2022/03/21 07:25:01;;;;;;;84.90;35.63;;;4.30;99.90;;;;;;5034719;28;20506;-77
2022/03/21 07:27:26;;;;;;;75.13;35.03;;;4.20;99.90;;;;;;5034903;28;20045;-77
2022/03/21 07:29:52;;;;;;;70.30;31.90;;;4.40;99.90;;;;;;5034466;28;20034;-77
2022/03/21 07:32:18;;;;;;;73.85;32.63;;;4.60;99.90;;;;;;5033481;28;20037;-77
2022/03/21 07:34:44;;;;;;;70.18;30.83;;;4.50;99.90;;;;;;5035110;28;20099;-77
2022/03/21 07:37:09;;;;;;;76.63;32.72;;;4.60;99.90;;;;;;5034472;28;20499;-77
2022/03/21 07:39:37;;;;;;;69.75;31.42;;;5.00;99.90;;;;;;5034440;28;20053;-77
2022/03/21 07:42:03;;;;;;;60.03;29.25;;;5.10;99.90;;;;;;5034788;28;20476;-78
2022/03/21 07:47:20;;;;;;;55.42;28.10;;;5.00;99.90;;;;;;5033431;28;20053;-77
2022/03/21 07:49:51;;;;;;;61.58;27.48;;;5.00;99.90;;;;;;5031188;28;20112;-78
2022/03/21 07:52:18;;;;;;;51.58;24.92;;;5.40;99.90;;;;;;5029742;28;20786;-77
2022/03/21 07:54:44;;;;;;;46.45;23.27;;;5.20;99.90;;;;;;5026176;28;20045;-77
2022/03/21 07:57:10;;;;;;;45.20;23.65;;;5.20;99.90;;;;;;5030729;28;20107;-77
2022/03/21 07:59:36;;;;;;;40.45;20.58;;;5.30;99.90;;;;;;5029631;28;20824;-76
2022/03/21 08:02:03;;;;;;;37.95;22.30;;;5.40;99.90;;;;;;5031334;28;20506;-77
2022/03/21 08:04:31;;;;;;;36.25;19.42;;;5.50;99.90;;;;;;5031265;28;20052;-77
2022/03/21 08:06:58;;;;;;;37.97;19.25;;;5.60;99.90;;;;;;5029236;28;20456;-77
2022/03/21 08:09:33;;;;;;;36.10;19.75;;;5.80;99.90;;;;;;5031515;28;20073;-77
2022/03/21 08:12:00;;;;;;;35.47;19.15;;;5.90;99.90;;;;;;5030283;28;20121;-77
2022/03/21 08:14:26;;;;;;;33.53;18.80;;;6.00;99.90;;;;;;5031494;28;20495;-77
2022/03/21 08:16:51;;;;;;;36.97;16.23;;;6.10;99.90;;;;;;5031210;28;20045;-77
2022/03/21 08:19:18;;;;;;;33.38;17.67;;;6.30;99.90;;;;;;5032322;28;20411;-77
2022/03/21 08:21:44;;;;;;;29.13;16.60;;;6.40;99.90;;;;;;5034091;28;20042;-77
2022/03/21 08:24:12;;;;;;;28.73;16.20;;;6.50;99.90;;;;;;5033714;28;20041;-78
2022/03/21 08:26:38;;;;;;;31.30;17.10;;;6.60;99.90;;;;;;5034337;28;20041;-78
2022/03/21 08:29:03;;;;;;;30.42;16.92;;;6.80;99.90;;;;;;5034963;28;20129;-78
2022/03/21 08:31:29;;;;;;;32.30;16.95;;;6.90;99.90;;;;;;5034085;28;20069;-79
2022/03/21 08:33:55;;;;;;;34.05;15.88;;;7.00;99.90;;;;;;5034473;28;20049;-78
2022/03/21 08:36:20;;;;;;;31.90;18.25;;;7.20;99.90;;;;;;5032584;28;20053;-79
2022/03/21 08:38:47;;;;;;;26.42;16.33;;;7.30;99.90;;;;;;5032954;28;20049;-78
2022/03/21 08:41:13;;;;;;;32.42;17.88;;;7.50;99.90;;;;;;5032342;28;20120;-79
2022/03/21 08:43:38;;;;;;;27.30;16.13;;;7.70;99.90;;;;;;5033191;28;20080;-79
2022/03/21 08:46:04;;;;;;;32.65;16.83;;;8.00;99.90;;;;;;5030683;28;20052;-79
2022/03/21 08:51:14;;;;;;;33.47;19.17;;;8.30;99.90;;;;;;5032154;28;20068;-78
2022/03/21 08:53:39;;;;;;;27.38;16.38;;;8.50;99.90;;;;;;5032105;28;20037;-79
2022/03/21 08:56:05;;;;;;;34.08;19.20;;;8.50;99.90;;;;;;5030484;28;20045;-79
2022/03/21 08:58:30;;;;;;;31.48;16.75;;;8.70;99.90;;;;;;5030782;28;20045;-78
2022/03/21 09:00:57;;;;;;;29.98;17.77;;;9.00;99.90;;;;;;5030584;28;20053;-79
2022/03/21 09:03:22;;;;;;;35.35;19.35;;;9.20;99.90;;;;;;5031052;28;20081;-78
2022/03/21 09:05:48;;;;;;;32.30;17.13;;;9.40;99.90;;;;;;5028817;28;20077;-78
2022/03/21 09:08:15;;;;;;;35.70;18.65;;;9.70;99.90;;;;;;5030809;28;20046;-79
2022/03/21 09:10:41;;;;;;;28.63;16.95;;;10.50;99.90;;;;;;5030458;28;20512;-78
2022/03/21 09:13:07;;;;;;;32.95;18.45;;;11.30;99.90;;;;;;5030471;28;20049;-78
2022/03/21 09:15:34;;;;;;;30.77;16.95;;;12.10;99.90;;;;;;5030265;28;20116;-79
2022/03/21 09:18:01;;;;;;;29.38;17.48;;;12.70;99.90;;;;;;5030397;28;20095;-79
2022/03/21 09:20:26;;;;;;;28.63;15.57;;;13.10;99.90;;;;;;5030667;28;20049;-79
2022/03/21 09:22:52;;;;;;;31.55;15.55;;;13.40;99.90;;;;;;5029000;28;20111;-78
2022/03/21 09:25:18;;;;;;;28.60;16.27;;;13.70;99.90;;;;;;5023877;28;20048;-79
2022/03/21 09:27:43;;;;;;;32.03;17.17;;;14.10;99.90;;;;;;5010325;28;20069;-78
2022/03/21 09:30:11;;;;;;;29.80;17.40;;;14.20;99.90;;;;;;5011277;28;20045;-79
2022/03/21 09:32:37;;;;;;;29.20;15.13;;;14.20;98.80;;;;;;5009745;28;20100;-79
2022/03/21 09:35:05;;;;;;;23.90;14.68;;;14.50;97.90;;;;;;5010696;28;20046;-79
2022/03/21 09:37:31;;;;;;;25.92;16.27;;;14.60;97.50;;;;;;5010580;28;20052;-78
2022/03/21 09:39:57;;;;;;;29.80;16.92;;;14.90;86.90;;;;;;5010828;28;20046;-79
2022/03/21 09:42:24;;;;;;;26.02;15.68;;;14.90;90.40;;;;;;5010213;28;20049;-79
2022/03/21 09:44:52;;;;;;;22.88;15.70;;;14.90;91.50;;;;;;5011359;28;20053;-78
2022/03/21 09:50:10;;;;;;;25.88;15.63;;;15.00;75.90;;;;;;5009450;28;20053;-78
2022/03/21 09:52:36;;;;;;;28.92;17.15;;;14.90;76.20;;;;;;5011099;28;20066;-78
2022/03/21 09:55:02;;;;;;;29.27;16.90;;;14.80;68.00;;;;;;5010631;28;20053;-78
2022/03/21 09:57:28;;;;;;;28.08;17.52;;;14.80;80.90;;;;;;5010223;28;20106;-79
2022/03/21 09:59:58;;;;;;;30.25;16.98;;;15.00;75.80;;;;;;5010941;28;20053;-79
2022/03/21 10:02:24;;;;;;;31.80;17.38;;;15.00;73.40;;;;;;5009914;28;20125;-79
2022/03/21 10:04:50;;;;;;;22.65;15.75;;;14.90;69.00;;;;;;5009526;28;20052;-78
2022/03/21 10:07:24;;;;;;;32.88;17.77;;;14.80;72.70;;;;;;5011064;28;20056;-78
2022/03/21 10:10:16;;;;;;;31.67;17.77;;;14.70;79.10;;;;;;5010653;28;20050;-78
2022/03/21 10:12:43;;;;;;;25.75;17.15;;;14.80;73.00;;;;;;5009034;28;20050;-78
2022/03/21 10:15:10;;;;;;;28.33;16.38;;;14.80;75.30;;;;;;5010964;28;20124;-78
2022/03/21 10:17:36;;;;;;;23.77;15.20;;;14.80;72.00;;;;;;5010750;28;20508;-78
2022/03/21 10:20:04;;;;;;;26.25;16.58;;;15.00;71.90;;;;;;5014265;28;20041;-79
2022/03/21 10:22:33;;;;;;;26.27;15.50;;;15.20;67.60;;;;;;5014055;28;20049;-79
2022/03/21 10:25:04;;;;;;;25.17;14.98;;;15.20;68.00;;;;;;5014183;28;20064;-78
2022/03/21 10:27:33;;;;;;;23.98;14.77;;;15.30;67.20;;;;;;5012466;28;20531;-78
2022/03/21 10:30:02;;;;;;;24.02;16.38;;;15.40;62.50;;;;;;5012686;28;20068;-79
2022/03/21 10:32:36;;;;;;;25.02;15.60;;;15.50;64.00;;;;;;5014864;28;20052;-76
2022/03/21 10:35:14;;;;;;;23.67;14.30;;;15.70;62.80;;;;;;5013006;28;20052;-79
2022/03/21 10:38:00;;;;;;;25.80;15.65;;;15.90;58.60;;;;;;5013439;28;20054;-79
2022/03/21 10:40:35;;;;;;;25.30;16.55;;;15.70;54.80;;;;;;5013567;28;20046;-78
2022/03/21 10:43:14;;;;;;;22.02;16.00;;;15.50;66.30;;;;;;5013411;28;20070;-78
2022/03/21 10:45:51;;;;;;;27.40;16.85;;;15.90;72.20;;;;;;5013700;28;20061;-80
2022/03/21 10:48:19;;;;;;;23.92;15.27;;;16.00;70.70;;;;;;5017381;28;20061;-83
2022/03/21 10:50:46;;;;;;;28.52;16.63;;;15.90;64.60;;;;;;5016990;28;20130;-79
2022/03/21 10:53:33;;;;;;;29.15;15.90;;;15.90;63.60;;;;;;5011430;28;20049;-79
2022/03/21 10:56:04;;;;;;;25.85;16.25;;;15.90;65.60;;;;;;5008084;28;20066;-79
2022/03/21 10:58:47;;;;;;;23.85;16.35;;;15.70;69.80;;;;;;5012480;28;20275;-79
2022/03/21 11:01:14;;;;;;;21.48;15.52;;;15.30;60.20;;;;;;5025824;28;20061;-79
2022/03/21 11:03:41;;;;;;;25.35;15.98;;;15.50;71.40;;;;;;5031889;28;20053;-78
2022/03/21 11:06:08;;;;;;;24.15;16.80;;;15.60;64.40;;;;;;5031378;28;20550;-80
2022/03/21 11:08:34;;;;;;;25.00;17.40;;;15.20;63.90;;;;;;5031604;28;20096;-80
2022/03/21 11:11:00;;;;;;;25.13;15.45;;;15.30;66.30;;;;;;5031082;28;20037;-79
2022/03/21 11:13:27;;;;;;;26.02;17.73;;;15.60;76.10;;;;;;5031113;28;20044;-79
2022/03/21 11:15:53;;;;;;;26.45;16.25;;;15.70;66.90;;;;;;5031790;28;20396;-79
2022/03/21 11:18:20;;;;;;;25.20;16.85;;;15.90;67.10;;;;;;5031781;28;20038;-79
2022/03/21 11:20:47;;;;;;;26.45;16.73;;;16.20;58.80;;;;;;5031800;28;20544;-79
2022/03/21 11:23:15;;;;;;;23.17;15.52;;;16.00;66.20;;;;;;5030532;28;20041;-79
2022/03/21 11:25:48;;;;;;;25.30;15.48;;;16.20;66.20;;;;;;5032521;28;20504;-79
2022/03/21 11:28:52;;;;;;;25.30;16.15;;;16.70;50.00;;;;;;5016412;28;20049;-79
2022/03/21 11:31:17;;;;;;;24.45;15.88;;;16.40;51.50;;;;;;5034585;28;20415;-78
2022/03/21 11:34:15;;;;;;;24.63;14.27;;;15.80;55.10;;;;;;5034022;28;20053;-79
2022/03/21 11:37:26;;;;;;;23.83;15.20;;;15.70;49.10;;;;;;5033784;28;20038;-78
2022/03/21 11:40:28;;;;;;;25.70;16.27;;;16.20;51.70;;;;;;5024191;28;20491;-78
2022/03/21 11:43:16;;;;;;;20.95;13.90;;;16.90;43.80;;;;;;5035616;28;20046;-79
2022/03/21 11:45:43;;;;;;;26.95;16.33;;;17.10;44.40;;;;;;5035378;28;20120;-79
2022/03/21 11:48:17;;;;;;;22.40;16.27;;;17.50;43.20;;;;;;5035421;28;20376;-79
2022/03/21 11:50:44;;;;;;;24.73;16.65;;;17.20;50.50;;;;;;5035520;28;20496;-79
2022/03/21 11:53:11;;;;;;;22.95;15.40;;;17.20;54.90;;;;;;5019951;28;20049;-78
2022/03/21 11:55:40;;;;;;;26.55;15.50;;;18.60;41.90;;;;;;5036852;28;20415;-78
2022/03/21 11:58:38;;;;;;;22.73;14.23;;;18.00;36.40;;;;;;5035716;28;20076;-79
2022/03/21 12:01:12;;;;;;;28.05;14.55;;;17.80;35.20;;;;;;5009556;28;20175;-79
2022/03/21 12:03:41;;;;;;;28.83;16.23;;;18.30;34.80;;;;;;5034812;28;20093;-79
2022/03/21 12:06:29;;;;;;;26.48;16.27;;;18.70;35.40;;;;;;5037080;28;20041;-79
2022/03/21 12:09:08;;;;;;;20.17;14.45;;;18.70;33.60;;;;;;5037026;28;20037;-79
2022/03/21 12:11:37;;;;;;;25.60;15.00;;;18.80;30.10;;;;;;5035943;28;20042;-79
2022/03/21 12:14:25;;;;;;;23.30;13.95;;;19.10;27.30;;;;;;5036466;28;20053;-79
2022/03/21 12:17:02;;;;;;;21.80;14.20;;;18.90;28.20;;;;;;5036470;28;20503;-79
2022/03/21 12:20:01;;;;;;;25.38;15.63;;;18.90;27.50;;;;;;5035500;28;20095;-79
2022/03/21 12:22:27;;;;;;;25.40;16.50;;;18.90;27.70;;;;;;5017823;28;20488;-79
2022/03/21 12:24:53;;;;;;;21.73;14.75;;;18.40;28.70;;;;;;5035944;28;20085;-79
2022/03/21 12:27:35;;;;;;;20.63;14.32;;;18.30;30.00;;;;;;5035187;28;20442;-79
2022/03/21 12:30:32;;;;;;;22.02;15.43;;;18.90;27.90;;;;;;5018544;28;20045;-79
2022/03/21 12:33:25;;;;;;;27.13;14.65;;;19.20;28.70;;;;;;5017989;28;20053;-78
2022/03/21 12:35:50;;;;;;;22.15;14.82;;;19.40;27.20;;;;;;5032561;28;20056;-79
2022/03/21 12:38:29;;;;;;;25.33;16.05;;;19.60;23.30;;;;;;5036819;28;20061;-79
2022/03/21 12:41:03;;;;;;;20.90;15.20;;;19.40;25.80;;;;;;5034971;28;20121;-79
2022/03/21 12:43:28;;;;;;;23.25;14.88;;;19.40;24.50;;;;;;5034629;28;20042;-79
2022/03/21 12:46:06;;;;;;;25.33;15.68;;;19.10;26.40;;;;;;5035470;28;20107;-79
2022/03/21 12:48:39;;;;;;;21.75;14.32;;;18.30;25.20;;;;;;5035885;28;20567;-80
2022/03/21 12:51:06;;;;;;;21.63;14.02;;;18.60;28.10;;;;;;5037945;28;20057;-80
2022/03/21 12:53:44;;;;;;;21.92;15.25;;;19.30;25.60;;;;;;5036904;28;20099;-78
2022/03/21 12:56:18;;;;;;;28.17;15.05;;;19.90;23.50;;;;;;5019518;28;20056;-79
2022/03/21 12:58:46;;;;;;;23.20;14.40;;;20.00;22.80;;;;;;5036164;28;20042;-78
2022/03/21 13:01:19;;;;;;;23.02;15.57;;;20.00;23.10;;;;;;5036863;28;20049;-79
2022/03/21 13:03:45;;;;;;;28.33;15.05;;;20.00;23.30;;;;;;5036885;28;20064;-79
2022/03/21 13:10:32;;;;;;;27.30;15.60;;;20.20;20.00;;;;;;5034959;28;20041;-78
2022/03/21 13:11:46;;;;;;;21.67;14.75;;;20.10;21.30;;;;;;5035943;28;20140;-79